Time;durP1;ratioP1;P1;durP2;ratioP2;P2;SDS_P1;SDS_P2;PMS_P1;PMS_P2;Temp;Humidity;BMP_temperature;BMP_pressure;BME280_temperature;BME280_humidity;BME280_pressure;Samples;Min_cycle;Max_cycle;Signal;HPM_P1;HPM_P2
2022/12/12 00:00:09;;;;;;;0.20;0.20;;;;;;;;;;1759470;28;20698;-72
2022/12/12 00:01:00;;;;;;;0.20;0.20;;;;;;;;;;1759776;28;20591;-72
2022/12/12 00:01:53;;;;;;;0.20;0.20;;;;;;;;;;1759488;28;20280;-72
2022/12/12 00:02:44;;;;;;;0.10;0.10;;;;;;;;;;1759839;28;20239;-72
2022/12/12 00:03:37;;;;;;;0.10;0.10;;;;;;;;;;1759080;28;20578;-72
2022/12/12 00:04:28;;;;;;;0.10;0.10;;;;;;;;;;1759736;28;20212;-72
2022/12/12 00:05:20;;;;;;;0.40;0.40;;;;;;;;;;1760553;28;20724;-72
2022/12/12 00:06:11;;;;;;;0.10;0.10;;;;;;;;;;1759971;28;20224;-72
2022/12/12 00:07:03;;;;;;;0.20;0.20;;;;;;;;;;1759739;28;20204;-72
2022/12/12 00:07:54;;;;;;;0.13;0.13;;;;;;;;;;1760508;28;20212;-72
2022/12/12 00:08:46;;;;;;;0.20;0.20;;;;;;;;;;1759999;28;20682;-72
2022/12/12 00:09:37;;;;;;;0.20;0.20;;;;;;;;;;1760128;28;20240;-72
2022/12/12 00:10:30;;;;;;;0.10;0.10;;;;;;;;;;1759898;28;20596;-72
2022/12/12 00:11:21;;;;;;;0.20;0.20;;;;;;;;;;1760285;28;20208;-72
2022/12/12 00:12:13;;;;;;;0.20;0.20;;;;;;;;;;1759784;28;20201;-72
2022/12/12 00:13:04;;;;;;;0.10;0.10;;;;;;;;;;1759920;28;20208;-72
2022/12/12 00:13:57;;;;;;;0.10;0.10;;;;;;;;;;1760074;28;20250;-72
2022/12/12 00:14:48;;;;;;;0.22;0.22;;;;;;;;;;1753409;28;20205;-72
2022/12/12 00:15:41;;;;;;;0.30;0.30;;;;;;;;;;1759350;28;20644;-72
2022/12/12 00:16:32;;;;;;;0.10;0.10;;;;;;;;;;1760028;28;20215;-72
2022/12/12 00:17:24;;;;;;;0.05;0.05;;;;;;;;;;1759566;28;20226;-72
2022/12/12 00:18:15;;;;;;;0.10;0.10;;;;;;;;;;1759926;28;20208;-72
2022/12/12 00:19:07;;;;;;;0.15;0.15;;;;;;;;;;1759824;28;20196;-72
2022/12/12 00:19:59;;;;;;;0.20;0.20;;;;;;;;;;1759780;28;20197;-72
2022/12/12 00:20:51;;;;;;;0.10;0.10;;;;;;;;;;1760572;28;20226;-72
2022/12/12 00:21:42;;;;;;;0.10;0.10;;;;;;;;;;1759731;28;20666;-71
2022/12/12 00:22:34;;;;;;;0.10;0.10;;;;;;;;;;1759809;28;20592;-71
2022/12/12 00:23:26;;;;;;;0.10;0.10;;;;;;;;;;1759372;28;20240;-71
2022/12/12 00:24:18;;;;;;;0.30;0.30;;;;;;;;;;1759934;28;20269;-71
2022/12/12 00:25:09;;;;;;;0.10;0.10;;;;;;;;;;1759934;28;20507;-72
2022/12/12 00:26:02;;;;;;;0.10;0.10;;;;;;;;;;1760153;28;20234;-72
2022/12/12 00:26:53;;;;;;;0.15;0.15;;;;;;;;;;1759966;28;20228;-71
2022/12/12 00:27:45;;;;;;;0.30;0.30;;;;;;;;;;1760179;28;20530;-72
2022/12/12 00:28:36;;;;;;;0.10;0.10;;;;;;;;;;1759560;28;20595;-72
2022/12/12 00:29:28;;;;;;;0.17;0.17;;;;;;;;;;1760231;28;20201;-72
2022/12/12 00:30:19;;;;;;;0.43;0.43;;;;;;;;;;1760370;28;20219;-72
2022/12/12 00:31:13;;;;;;;0.20;0.20;;;;;;;;;;1759857;28;20200;-72
2022/12/12 00:32:04;;;;;;;0.10;0.10;;;;;;;;;;1759652;28;20201;-72
2022/12/12 00:32:56;;;;;;;0.00;0.00;;;;;;;;;;1760237;28;20629;-72
2022/12/12 00:33:48;;;;;;;0.20;0.20;;;;;;;;;;1757406;28;20585;-71
2022/12/12 00:34:40;;;;;;;0.10;0.10;;;;;;;;;;1759925;28;20240;-72
2022/12/12 00:35:32;;;;;;;0.20;0.20;;;;;;;;;;1759878;28;20245;-72
2022/12/12 00:36:24;;;;;;;0.28;0.28;;;;;;;;;;1760103;28;20498;-71
2022/12/12 00:37:16;;;;;;;0.13;0.13;;;;;;;;;;1759309;28;20599;-71
2022/12/12 00:38:08;;;;;;;0.10;0.10;;;;;;;;;;1759942;28;20654;-71
2022/12/12 00:38:59;;;;;;;0.20;0.20;;;;;;;;;;1759507;28;20247;-71
2022/12/12 00:39:51;;;;;;;0.10;0.10;;;;;;;;;;1761903;28;20197;-71
2022/12/12 00:40:42;;;;;;;0.17;0.17;;;;;;;;;;1761326;28;20252;-71
2022/12/12 00:41:34;;;;;;;0.10;0.10;;;;;;;;;;1761208;28;20278;-72
2022/12/12 00:42:26;;;;;;;0.08;0.08;;;;;;;;;;1761092;28;20246;-72
2022/12/12 00:43:18;;;;;;;0.20;0.20;;;;;;;;;;1761175;28;20661;-72
2022/12/12 00:44:09;;;;;;;0.10;0.10;;;;;;;;;;1760771;28;20221;-72
2022/12/12 00:45:04;;;;;;;0.20;0.20;;;;;;;;;;1761175;28;20228;-72
2022/12/12 00:45:57;;;;;;;0.10;0.10;;;;;;;;;;1761445;28;20662;-71
2022/12/12 00:46:50;;;;;;;0.30;0.30;;;;;;;;;;1756116;28;20202;-71
2022/12/12 00:47:41;;;;;;;0.20;0.20;;;;;;;;;;1761099;28;20216;-71
2022/12/12 00:48:34;;;;;;;0.30;0.30;;;;;;;;;;1760805;28;20289;-71
2022/12/12 00:49:25;;;;;;;0.25;0.25;;;;;;;;;;1761265;28;20212;-71
2022/12/12 00:50:17;;;;;;;0.20;0.20;;;;;;;;;;1761344;28;20205;-71
2022/12/12 00:51:09;;;;;;;0.20;0.20;;;;;;;;;;1761306;28;20263;-70
2022/12/12 00:52:01;;;;;;;0.10;0.10;;;;;;;;;;1760652;28;20239;-71
2022/12/12 00:52:52;;;;;;;0.10;0.10;;;;;;;;;;1761526;28;20212;-71
2022/12/12 00:53:44;;;;;;;0.03;0.03;;;;;;;;;;1760737;28;20200;-70
2022/12/12 00:54:35;;;;;;;0.40;0.40;;;;;;;;;;1761405;28;20416;-70
2022/12/12 00:55:28;;;;;;;0.20;0.20;;;;;;;;;;1761464;28;20403;-71
2022/12/12 00:56:20;;;;;;;0.10;0.10;;;;;;;;;;1761323;28;20674;-72
2022/12/12 00:57:12;;;;;;;0.35;0.35;;;;;;;;;;1760935;28;20202;-72
2022/12/12 00:58:03;;;;;;;0.15;0.15;;;;;;;;;;1761127;28;20717;-71
2022/12/12 00:58:55;;;;;;;0.10;0.10;;;;;;;;;;1761296;28;20512;-71
2022/12/12 00:59:46;;;;;;;0.10;0.10;;;;;;;;;;1761421;28;20315;-72
2022/12/12 01:00:40;;;;;;;0.10;0.10;;;;;;;;;;1759089;28;20236;-72
2022/12/12 01:01:33;;;;;;;0.20;0.20;;;;;;;;;;1761388;28;20209;-71
2022/12/12 01:02:26;;;;;;;0.30;0.30;;;;;;;;;;1760600;28;20205;-71
2022/12/12 01:03:18;;;;;;;0.10;0.10;;;;;;;;;;1760994;28;20212;-72
2022/12/12 01:04:10;;;;;;;0.20;0.20;;;;;;;;;;1760555;28;20221;-72
2022/12/12 01:05:03;;;;;;;0.10;0.10;;;;;;;;;;1760959;28;20198;-71
2022/12/12 01:05:55;;;;;;;0.10;0.10;;;;;;;;;;1761425;28;20345;-71
2022/12/12 01:06:46;;;;;;;0.25;0.25;;;;;;;;;;1760590;28;20217;-71
2022/12/12 01:07:38;;;;;;;0.10;0.10;;;;;;;;;;1761170;28;20277;-72
2022/12/12 01:08:29;;;;;;;0.20;0.20;;;;;;;;;;1760539;28;20594;-72
2022/12/12 01:09:21;;;;;;;0.20;0.20;;;;;;;;;;1761236;28;20215;-71
2022/12/12 01:10:12;;;;;;;0.00;0.00;;;;;;;;;;1761113;28;20220;-72
2022/12/12 01:11:04;;;;;;;0.10;0.10;;;;;;;;;;1761140;28;20197;-72
2022/12/12 01:11:55;;;;;;;0.10;0.10;;;;;;;;;;1761146;28;20216;-72
2022/12/12 01:12:47;;;;;;;0.10;0.10;;;;;;;;;;1761017;28;20707;-72
2022/12/12 01:13:38;;;;;;;0.20;0.20;;;;;;;;;;1760468;28;20264;-72
2022/12/12 01:14:31;;;;;;;0.00;0.00;;;;;;;;;;1761026;28;20266;-72
2022/12/12 01:15:22;;;;;;;0.05;0.05;;;;;;;;;;1761164;28;20205;-72
2022/12/12 01:16:14;;;;;;;0.15;0.15;;;;;;;;;;1761160;28;20197;-72
2022/12/12 01:17:05;;;;;;;0.10;0.10;;;;;;;;;;1760533;28;20208;-72
2022/12/12 01:17:58;;;;;;;0.15;0.15;;;;;;;;;;1761331;28;20626;-72
2022/12/12 01:18:50;;;;;;;0.30;0.30;;;;;;;;;;1758836;28;20657;-72
2022/12/12 01:19:42;;;;;;;0.10;0.10;;;;;;;;;;1761103;28;20660;-72
2022/12/12 01:20:33;;;;;;;0.10;0.10;;;;;;;;;;1761027;28;20219;-72
2022/12/12 01:21:25;;;;;;;0.10;0.10;;;;;;;;;;1761053;28;20204;-71
2022/12/12 01:22:16;;;;;;;0.20;0.20;;;;;;;;;;1760599;28;20201;-71
2022/12/12 01:23:08;;;;;;;0.20;0.20;;;;;;;;;;1760834;28;20193;-71
2022/12/12 01:24:00;;;;;;;0.20;0.20;;;;;;;;;;1760607;28;20670;-71
2022/12/12 01:24:55;;;;;;;0.10;0.10;;;;;;;;;;1754376;28;20526;-71
2022/12/12 01:25:46;;;;;;;0.10;0.10;;;;;;;;;;1761136;28;20490;-71
2022/12/12 01:26:38;;;;;;;0.10;0.10;;;;;;;;;;1761124;28;20204;-71
2022/12/12 01:27:30;;;;;;;0.10;0.10;;;;;;;;;;1760512;28;20215;-71
2022/12/12 01:28:22;;;;;;;0.15;0.15;;;;;;;;;;1760784;28;20277;-71
2022/12/12 01:29:13;;;;;;;0.03;0.03;;;;;;;;;;1760772;28;20201;-71
2022/12/12 01:30:05;;;;;;;0.10;0.10;;;;;;;;;;1761177;28;20227;-71
2022/12/12 01:30:56;;;;;;;0.25;0.25;;;;;;;;;;1761283;28;20587;-71
2022/12/12 01:31:48;;;;;;;0.10;0.10;;;;;;;;;;1760503;28;20220;-71
2022/12/12 01:32:39;;;;;;;0.30;0.30;;;;;;;;;;1761041;28;20212;-71
2022/12/12 01:33:33;;;;;;;0.25;0.25;;;;;;;;;;1760638;28;20574;-71
2022/12/12 01:34:24;;;;;;;0.10;0.10;;;;;;;;;;1761033;28;20275;-71
2022/12/12 01:35:16;;;;;;;0.15;0.15;;;;;;;;;;1761105;28;20205;-71
2022/12/12 01:36:07;;;;;;;0.20;0.20;;;;;;;;;;1761110;28;20207;-71
2022/12/12 01:36:59;;;;;;;0.03;0.03;;;;;;;;;;1760877;28;20207;-71
2022/12/12 01:37:50;;;;;;;0.00;0.00;;;;;;;;;;1758926;28;20562;-70
2022/12/12 01:38:43;;;;;;;0.17;0.17;;;;;;;;;;1760559;28;20227;-71
2022/12/12 01:39:34;;;;;;;0.30;0.30;;;;;;;;;;1760922;28;20204;-71
2022/12/12 01:40:28;;;;;;;0.10;0.10;;;;;;;;;;1761098;28;20603;-71
2022/12/12 01:41:20;;;;;;;0.10;0.10;;;;;;;;;;1760899;28;20201;-71
2022/12/12 01:42:14;;;;;;;0.20;0.20;;;;;;;;;;1760405;28;20201;-71
2022/12/12 01:43:05;;;;;;;0.10;0.10;;;;;;;;;;1761154;28;20204;-71
2022/12/12 01:44:01;;;;;;;0.08;0.08;;;;;;;;;;1760558;28;20254;-72
2022/12/12 01:44:52;;;;;;;0.20;0.20;;;;;;;;;;1761375;28;20192;-71
2022/12/12 01:46:24;;;;;;;0.17;0.17;;;;;;;;;;1760760;28;20208;-71
2022/12/12 01:47:17;;;;;;;0.10;0.10;;;;;;;;;;1759029;28;20232;-70
2022/12/12 01:48:08;;;;;;;0.20;0.20;;;;;;;;;;1760887;28;20385;-71
2022/12/12 01:49:04;;;;;;;0.20;0.20;;;;;;;;;;1760789;28;20250;-71
2022/12/12 01:49:57;;;;;;;0.10;0.10;;;;;;;;;;1754132;28;20209;-71
2022/12/12 01:50:49;;;;;;;0.20;0.20;;;;;;;;;;1760950;28;20201;-70
2022/12/12 01:51:41;;;;;;;0.10;0.10;;;;;;;;;;1760617;28;20625;-71
2022/12/12 01:52:37;;;;;;;0.17;0.17;;;;;;;;;;1759857;28;20217;-70
2022/12/12 01:53:32;;;;;;;0.15;0.15;;;;;;;;;;1760339;28;20698;-71
2022/12/12 01:54:25;;;;;;;0.20;0.20;;;;;;;;;;1760677;28;20260;-72
2022/12/12 01:55:21;;;;;;;0.10;0.10;;;;;;;;;;1761288;28;20228;-71
2022/12/12 01:56:13;;;;;;;0.10;0.10;;;;;;;;;;1761116;28;20197;-70
2022/12/12 01:57:08;;;;;;;0.13;0.13;;;;;;;;;;1760419;28;20215;-71
2022/12/12 01:57:59;;;;;;;0.10;0.10;;;;;;;;;;1761217;28;20537;-71
2022/12/12 01:58:52;;;;;;;0.10;0.10;;;;;;;;;;1760474;28;20288;-71
2022/12/12 01:59:45;;;;;;;0.10;0.10;;;;;;;;;;1760922;28;20235;-71
2022/12/12 02:00:36;;;;;;;0.10;0.10;;;;;;;;;;1760829;28;20215;-71
2022/12/12 02:01:27;;;;;;;0.10;0.10;;;;;;;;;;1760973;28;20212;-71
2022/12/12 02:02:19;;;;;;;0.10;0.10;;;;;;;;;;1760299;28;20197;-71
2022/12/12 02:03:10;;;;;;;0.20;0.20;;;;;;;;;;1760980;28;20232;-71
2022/12/12 02:04:04;;;;;;;0.20;0.20;;;;;;;;;;1760184;28;20286;-71
2022/12/12 02:04:55;;;;;;;0.20;0.20;;;;;;;;;;1760996;28;20212;-71
2022/12/12 02:05:50;;;;;;;0.10;0.10;;;;;;;;;;1761273;28;20211;-71
2022/12/12 02:06:41;;;;;;;0.20;0.20;;;;;;;;;;1760470;28;20220;-71
2022/12/12 02:07:33;;;;;;;0.10;0.10;;;;;;;;;;1759874;27;20201;-71
2022/12/12 02:08:25;;;;;;;0.10;0.10;;;;;;;;;;1760291;28;20208;-70
2022/12/12 02:09:17;;;;;;;0.10;0.10;;;;;;;;;;1760488;28;20209;-71
2022/12/12 02:10:08;;;;;;;0.10;0.10;;;;;;;;;;1761301;28;20224;-71
2022/12/12 02:11:01;;;;;;;0.10;0.10;;;;;;;;;;1761106;28;20669;-71
2022/12/12 02:11:53;;;;;;;0.10;0.10;;;;;;;;;;1756024;28;20508;-71
2022/12/12 02:12:45;;;;;;;0.30;0.30;;;;;;;;;;1760573;28;20201;-71
2022/12/12 02:13:36;;;;;;;0.20;0.20;;;;;;;;;;1759990;28;20233;-72
2022/12/12 02:14:30;;;;;;;0.10;0.10;;;;;;;;;;1760742;28;20232;-71
2022/12/12 02:15:22;;;;;;;0.13;0.13;;;;;;;;;;1761059;28;20228;-72
2022/12/12 02:16:21;;;;;;;0.10;0.10;;;;;;;;;;1760912;28;20197;-72
2022/12/12 02:17:30;;;;;;;0.10;0.10;;;;;;;;;;1760239;28;20405;-72
2022/12/12 02:18:23;;;;;;;0.20;0.20;;;;;;;;;;1759970;28;20443;-72
2022/12/12 02:19:27;;;;;;;0.15;0.15;;;;;;;;;;1760466;28;20212;-71
2022/12/12 02:20:31;;;;;;;0.10;0.10;;;;;;;;;;1761299;28;20276;-72
2022/12/12 02:21:23;;;;;;;0.10;0.10;;;;;;;;;;1760722;28;20544;-72
2022/12/12 02:22:26;;;;;;;0.10;0.10;;;;;;;;;;1760275;28;20461;-71
2022/12/12 02:23:32;;;;;;;0.20;0.20;;;;;;;;;;1755252;28;20182;-71
2022/12/12 02:24:33;;;;;;;0.10;0.10;;;;;;;;;;1757536;28;20217;-71
2022/12/12 02:25:34;;;;;;;0.10;0.10;;;;;;;;;;1760878;28;20251;-71
2022/12/12 02:26:46;;;;;;;0.20;0.20;;;;;;;;;;1760708;28;20265;-72
2022/12/12 02:27:53;;;;;;;0.10;0.10;;;;;;;;;;1760511;28;20216;-72
2022/12/12 02:28:56;;;;;;;0.20;0.20;;;;;;;;;;1760380;28;20201;-72
2022/12/12 02:30:02;;;;;;;0.30;0.30;;;;;;;;;;1760692;28;20587;-72
2022/12/12 02:31:07;;;;;;;0.22;0.22;;;;;;;;;;1760253;28;20640;-71
2022/12/12 02:32:01;;;;;;;0.30;0.30;;;;;;;;;;1756463;28;20239;-71
2022/12/12 02:33:20;;;;;;;0.20;0.20;;;;;;;;;;1760593;28;20248;-71
2022/12/12 02:34:14;;;;;;;0.10;0.10;;;;;;;;;;1732491;28;20593;-71
2022/12/12 02:35:10;;;;;;;0.10;0.10;;;;;;;;;;1742527;28;20280;-71
2022/12/12 02:36:05;;;;;;;0.17;0.17;;;;;;;;;;1760873;28;20208;-71
2022/12/12 02:37:02;;;;;;;0.10;0.10;;;;;;;;;;1756527;28;20308;-71
2022/12/12 02:38:01;;;;;;;0.20;0.20;;;;;;;;;;1759010;28;20227;-71
2022/12/12 02:38:56;;;;;;;0.10;0.10;;;;;;;;;;1760443;28;20205;-71
2022/12/12 02:39:49;;;;;;;0.20;0.20;;;;;;;;;;1760519;28;20201;-71
2022/12/12 02:40:46;;;;;;;0.17;0.17;;;;;;;;;;1760524;28;20542;-71
2022/12/12 02:41:40;;;;;;;0.15;0.15;;;;;;;;;;1760651;28;20549;-71
2022/12/12 02:42:37;;;;;;;0.10;0.10;;;;;;;;;;1760157;28;20209;-71
2022/12/12 02:43:31;;;;;;;0.17;0.17;;;;;;;;;;1760249;28;20271;-71
2022/12/12 02:44:27;;;;;;;0.20;0.20;;;;;;;;;;1756941;28;20201;-71
2022/12/12 02:45:20;;;;;;;0.20;0.20;;;;;;;;;;1760341;28;20221;-71
2022/12/12 02:46:15;;;;;;;0.30;0.30;;;;;;;;;;1760295;28;20201;-71
2022/12/12 02:47:08;;;;;;;0.13;0.13;;;;;;;;;;1760147;28;20513;-71
2022/12/12 02:48:04;;;;;;;0.15;0.15;;;;;;;;;;1760843;28;20212;-71
2022/12/12 02:48:57;;;;;;;0.10;0.10;;;;;;;;;;1760430;28;20428;-71
2022/12/12 02:49:52;;;;;;;0.20;0.20;;;;;;;;;;1760566;28;20261;-71
2022/12/12 02:50:44;;;;;;;0.20;0.20;;;;;;;;;;1760191;28;20201;-71
2022/12/12 02:51:37;;;;;;;0.10;0.10;;;;;;;;;;1760729;28;20528;-71
2022/12/12 02:52:28;;;;;;;0.10;0.10;;;;;;;;;;1760038;28;20215;-71
2022/12/12 02:53:20;;;;;;;0.10;0.10;;;;;;;;;;1760221;28;20196;-71
2022/12/12 02:54:16;;;;;;;0.17;0.17;;;;;;;;;;1760136;28;20201;-71
2022/12/12 02:55:08;;;;;;;0.40;0.40;;;;;;;;;;1760360;28;20290;-71
2022/12/12 02:56:04;;;;;;;0.20;0.20;;;;;;;;;;1760832;28;20614;-72
2022/12/12 02:56:56;;;;;;;0.10;0.10;;;;;;;;;;1755732;28;20209;-72
2022/12/12 02:57:49;;;;;;;0.17;0.17;;;;;;;;;;1760404;28;20558;-72
2022/12/12 02:58:40;;;;;;;0.10;0.10;;;;;;;;;;1759933;28;20213;-72
2022/12/12 02:59:34;;;;;;;0.10;0.10;;;;;;;;;;1760631;28;20207;-72
2022/12/12 03:00:25;;;;;;;0.10;0.10;;;;;;;;;;1760561;28;20220;-72
2022/12/12 03:01:24;;;;;;;0.20;0.20;;;;;;;;;;1760321;28;20642;-72
2022/12/12 03:02:31;;;;;;;0.20;0.20;;;;;;;;;;1759628;28;20220;-72
2022/12/12 03:08:33;;;;;;;0.10;0.10;;;;;;;;;;1760096;28;20189;-72
2022/12/12 03:09:29;;;;;;;0.30;0.30;;;;;;;;;;1757219;28;20209;-72
2022/12/12 03:10:29;;;;;;;0.05;0.05;;;;;;;;;;1760360;28;20243;-72
2022/12/12 03:11:27;;;;;;;0.20;0.20;;;;;;;;;;1760478;28;20608;-72
2022/12/12 03:12:24;;;;;;;0.10;0.10;;;;;;;;;;1760078;28;20193;-71
2022/12/12 03:13:22;;;;;;;0.20;0.20;;;;;;;;;;1759884;28;20220;-72
2022/12/12 03:14:17;;;;;;;0.38;0.38;;;;;;;;;;1759455;28;20761;-72
2022/12/12 03:15:13;;;;;;;0.10;0.10;;;;;;;;;;1760114;28;20197;-72
2022/12/12 03:16:13;;;;;;;0.10;0.10;;;;;;;;;;1760702;28;20197;-72
2022/12/12 03:17:10;;;;;;;0.10;0.10;;;;;;;;;;1759852;28;20258;-72
2022/12/12 03:18:05;;;;;;;0.20;0.20;;;;;;;;;;1760028;28;20208;-72
2022/12/12 03:18:58;;;;;;;0.10;0.10;;;;;;;;;;1758824;28;20255;-73
2022/12/12 03:19:56;;;;;;;0.20;0.20;;;;;;;;;;1760405;28;20207;-72
2022/12/12 03:20:49;;;;;;;0.20;0.20;;;;;;;;;;1760251;28;20209;-72
2022/12/12 03:21:46;;;;;;;0.10;0.10;;;;;;;;;;1760325;28;20615;-72
2022/12/12 03:22:42;;;;;;;0.20;0.20;;;;;;;;;;1760102;28;20205;-72
2022/12/12 03:23:35;;;;;;;0.20;0.20;;;;;;;;;;1759539;28;20293;-72
2022/12/12 03:24:30;;;;;;;0.00;0.00;;;;;;;;;;1760024;28;20647;-72
2022/12/12 03:25:27;;;;;;;0.17;0.17;;;;;;;;;;1760113;28;20204;-72
2022/12/12 03:26:21;;;;;;;0.20;0.20;;;;;;;;;;1760281;28;20193;-71
2022/12/12 03:27:16;;;;;;;0.30;0.30;;;;;;;;;;1759779;28;20201;-71
2022/12/12 03:28:10;;;;;;;0.20;0.20;;;;;;;;;;1760410;28;20193;-71
2022/12/12 03:29:05;;;;;;;0.28;0.28;;;;;;;;;;1759984;28;20197;-71
2022/12/12 03:30:00;;;;;;;0.15;0.15;;;;;;;;;;1760639;28;20626;-71
2022/12/12 03:30:56;;;;;;;0.20;0.20;;;;;;;;;;1756990;28;20220;-71
2022/12/12 03:31:49;;;;;;;0.20;0.20;;;;;;;;;;1759719;28;20204;-71
2022/12/12 03:32:46;;;;;;;0.10;0.10;;;;;;;;;;1760288;28;20590;-71
2022/12/12 03:33:39;;;;;;;0.20;0.20;;;;;;;;;;1759437;28;20554;-71
2022/12/12 03:34:33;;;;;;;0.10;0.10;;;;;;;;;;1760036;28;20201;-71
2022/12/12 03:35:26;;;;;;;0.20;0.20;;;;;;;;;;1760132;28;20215;-71
2022/12/12 03:36:21;;;;;;;0.20;0.20;;;;;;;;;;1760375;28;20200;-71
2022/12/12 03:37:15;;;;;;;0.00;0.00;;;;;;;;;;1759775;28;20209;-72
2022/12/12 03:38:09;;;;;;;0.10;0.10;;;;;;;;;;1760312;28;20288;-71
2022/12/12 03:39:04;;;;;;;0.17;0.17;;;;;;;;;;1759219;28;20197;-71
2022/12/12 03:39:58;;;;;;;0.20;0.20;;;;;;;;;;1760175;28;20200;-72
2022/12/12 03:40:50;;;;;;;0.13;0.13;;;;;;;;;;1760316;28;20201;-71
2022/12/12 03:41:44;;;;;;;0.10;0.10;;;;;;;;;;1759818;28;20193;-72
2022/12/12 03:42:39;;;;;;;0.20;0.20;;;;;;;;;;1759648;28;20723;-71
2022/12/12 03:43:32;;;;;;;0.20;0.20;;;;;;;;;;1759573;28;20643;-71
2022/12/12 03:44:27;;;;;;;0.30;0.30;;;;;;;;;;1760003;28;20636;-72
2022/12/12 03:45:24;;;;;;;0.10;0.10;;;;;;;;;;1760187;28;20201;-71
2022/12/12 03:46:17;;;;;;;0.08;0.08;;;;;;;;;;1760068;28;20204;-72
2022/12/12 03:47:11;;;;;;;0.10;0.10;;;;;;;;;;1759789;28;20203;-72
2022/12/12 03:48:07;;;;;;;0.10;0.10;;;;;;;;;;1760354;28;20244;-71
2022/12/12 03:49:02;;;;;;;0.25;0.25;;;;;;;;;;1759133;28;20193;-71
2022/12/12 03:49:55;;;;;;;0.40;0.40;;;;;;;;;;1760163;28;20209;-72
2022/12/12 03:50:50;;;;;;;0.20;0.20;;;;;;;;;;1759993;28;20534;-71
2022/12/12 03:51:43;;;;;;;0.30;0.30;;;;;;;;;;1760050;28;20236;-72
2022/12/12 03:52:38;;;;;;;0.20;0.20;;;;;;;;;;1759908;28;20293;-72
2022/12/12 03:53:32;;;;;;;0.00;0.00;;;;;;;;;;1759505;28;20223;-71
2022/12/12 03:54:27;;;;;;;0.20;0.20;;;;;;;;;;1759861;28;20200;-72
2022/12/12 03:55:22;;;;;;;0.00;0.00;;;;;;;;;;1760044;28;20193;-72
2022/12/12 03:56:18;;;;;;;0.25;0.25;;;;;;;;;;1759986;28;20208;-72
2022/12/12 03:57:11;;;;;;;0.05;0.05;;;;;;;;;;1759830;28;20197;-72
2022/12/12 03:58:06;;;;;;;0.00;0.00;;;;;;;;;;1760290;28;20211;-72
2022/12/12 03:58:59;;;;;;;0.10;0.10;;;;;;;;;;1758760;28;20234;-72
2022/12/12 03:59:53;;;;;;;0.35;0.35;;;;;;;;;;1760210;28;20204;-72
2022/12/12 04:00:45;;;;;;;0.10;0.10;;;;;;;;;;1759772;28;20772;-71
2022/12/12 04:01:40;;;;;;;0.10;0.10;;;;;;;;;;1760178;28;20204;-72
2022/12/12 04:02:34;;;;;;;0.10;0.10;;;;;;;;;;1759952;28;20212;-71
2022/12/12 04:03:30;;;;;;;0.20;0.20;;;;;;;;;;1759760;28;20197;-71
2022/12/12 04:04:24;;;;;;;0.05;0.05;;;;;;;;;;1756368;28;20197;-71
2022/12/12 04:05:18;;;;;;;0.10;0.10;;;;;;;;;;1760016;28;20221;-71
2022/12/12 04:06:27;;;;;;;0.15;0.15;;;;;;;;;;1760031;28;20219;-71
2022/12/12 04:07:21;;;;;;;0.20;0.20;;;;;;;;;;1759433;28;20216;-71
2022/12/12 04:08:14;;;;;;;0.22;0.22;;;;;;;;;;1759914;28;20216;-71
2022/12/12 04:13:02;;;;;;;0.15;0.15;;;;;;;;;;1759898;28;20207;-72
2022/12/12 04:13:59;;;;;;;0.10;0.10;;;;;;;;;;1752456;28;20218;-72
2022/12/12 04:15:16;;;;;;;0.20;0.20;;;;;;;;;;1753554;28;20661;-71
2022/12/12 04:16:11;;;;;;;0.28;0.28;;;;;;;;;;1752122;28;20250;-71
2022/12/12 04:17:05;;;;;;;0.10;0.10;;;;;;;;;;1750721;28;20236;-71
2022/12/12 04:18:01;;;;;;;0.00;0.00;;;;;;;;;;1754412;28;20217;-71
2022/12/12 04:18:56;;;;;;;0.22;0.22;;;;;;;;;;1754106;28;20237;-71
2022/12/12 04:23:31;;;;;;;0.00;0.00;;;;;;;;;;1753792;28;20267;-71
2022/12/12 04:24:28;;;;;;;0.10;0.10;;;;;;;;;;1754372;28;20216;-70
2022/12/12 04:25:26;;;;;;;0.40;0.40;;;;;;;;;;1753801;28;20274;-70
2022/12/12 04:26:38;;;;;;;0.15;0.15;;;;;;;;;;1754552;28;20190;-71
2022/12/12 04:27:31;;;;;;;0.15;0.15;;;;;;;;;;1754004;28;20209;-71
2022/12/12 04:28:22;;;;;;;0.20;0.20;;;;;;;;;;1753948;28;20284;-71
2022/12/12 04:29:28;;;;;;;0.10;0.10;;;;;;;;;;1754230;28;20531;-71
2022/12/12 04:30:19;;;;;;;0.20;0.20;;;;;;;;;;1754494;28;20595;-71
2022/12/12 04:31:11;;;;;;;0.13;0.13;;;;;;;;;;1754502;28;20229;-72
2022/12/12 04:32:06;;;;;;;0.32;0.32;;;;;;;;;;1754101;28;20198;-72
2022/12/12 04:33:00;;;;;;;0.00;0.00;;;;;;;;;;1754379;28;20216;-71
2022/12/12 04:33:53;;;;;;;0.10;0.10;;;;;;;;;;1753552;28;20212;-71
2022/12/12 04:34:49;;;;;;;0.10;0.10;;;;;;;;;;1754182;28;20207;-72
2022/12/12 04:35:44;;;;;;;0.20;0.20;;;;;;;;;;1754008;28;20212;-72
2022/12/12 04:36:35;;;;;;;0.20;0.20;;;;;;;;;;1754534;28;20202;-72
2022/12/12 04:37:29;;;;;;;0.10;0.10;;;;;;;;;;1753848;28;20216;-72
2022/12/12 04:38:22;;;;;;;0.20;0.20;;;;;;;;;;1753933;28;20202;-71
2022/12/12 04:39:15;;;;;;;0.10;0.10;;;;;;;;;;1753980;28;20198;-71
2022/12/12 04:40:09;;;;;;;0.10;0.10;;;;;;;;;;1754578;28;20206;-71
2022/12/12 04:41:02;;;;;;;0.20;0.20;;;;;;;;;;1754174;28;20705;-72
2022/12/12 04:41:56;;;;;;;0.20;0.20;;;;;;;;;;1753897;28;20214;-72
2022/12/12 04:42:50;;;;;;;0.10;0.10;;;;;;;;;;1752842;28;20213;-72
2022/12/12 04:43:46;;;;;;;0.30;0.30;;;;;;;;;;1753654;28;20214;-72
2022/12/12 04:44:39;;;;;;;0.15;0.15;;;;;;;;;;1754135;28;20206;-72
2022/12/12 04:45:32;;;;;;;0.08;0.08;;;;;;;;;;1754084;28;20237;-72
2022/12/12 04:46:26;;;;;;;0.20;0.20;;;;;;;;;;1754211;28;20668;-71
2022/12/12 04:47:18;;;;;;;0.20;0.20;;;;;;;;;;1753690;28;20197;-72
2022/12/12 04:48:14;;;;;;;0.15;0.15;;;;;;;;;;1754219;28;20623;-72
2022/12/12 04:49:06;;;;;;;0.10;0.10;;;;;;;;;;1754081;28;20275;-71
2022/12/12 04:50:04;;;;;;;0.08;0.08;;;;;;;;;;1754468;28;20511;-72
2022/12/12 04:50:57;;;;;;;0.10;0.10;;;;;;;;;;1753734;28;20237;-72
2022/12/12 04:51:50;;;;;;;0.40;0.40;;;;;;;;;;1754148;28;20635;-71
2022/12/12 04:52:43;;;;;;;0.20;0.20;;;;;;;;;;1754260;28;20616;-72
2022/12/12 04:53:38;;;;;;;0.08;0.08;;;;;;;;;;1753676;28;20201;-72
2022/12/12 04:54:31;;;;;;;0.17;0.17;;;;;;;;;;1751706;28;20198;-72
2022/12/12 04:55:26;;;;;;;0.22;0.22;;;;;;;;;;1754203;28;20208;-72
2022/12/12 04:56:20;;;;;;;0.20;0.20;;;;;;;;;;1754348;28;20197;-71
2022/12/12 04:57:15;;;;;;;0.10;0.10;;;;;;;;;;1753773;28;20223;-71
2022/12/12 04:58:06;;;;;;;0.10;0.10;;;;;;;;;;1754518;28;20197;-71
2022/12/12 04:58:59;;;;;;;0.10;0.10;;;;;;;;;;1753471;28;20628;-71
2022/12/12 04:59:50;;;;;;;0.20;0.20;;;;;;;;;;1754461;28;20205;-71
2022/12/12 05:00:46;;;;;;;0.10;0.10;;;;;;;;;;1753945;28;20209;-71
2022/12/12 05:01:42;;;;;;;0.20;0.20;;;;;;;;;;1754250;28;20221;-72
2022/12/12 05:02:37;;;;;;;0.10;0.10;;;;;;;;;;1753759;28;20209;-72
2022/12/12 05:03:33;;;;;;;0.30;0.30;;;;;;;;;;1753649;28;20209;-72
2022/12/12 05:04:28;;;;;;;0.05;0.05;;;;;;;;;;1754004;28;20194;-72
2022/12/12 05:05:25;;;;;;;0.00;0.00;;;;;;;;;;1753829;28;20222;-72
2022/12/12 05:06:20;;;;;;;0.10;0.10;;;;;;;;;;1754253;28;20194;-71
2022/12/12 05:07:13;;;;;;;0.10;0.10;;;;;;;;;;1753336;28;20498;-71
2022/12/12 05:08:08;;;;;;;0.10;0.10;;;;;;;;;;1754210;28;20673;-71
2022/12/12 05:09:00;;;;;;;0.30;0.30;;;;;;;;;;1753302;28;20809;-71
2022/12/12 05:09:52;;;;;;;0.20;0.20;;;;;;;;;;1754174;28;20205;-71
2022/12/12 05:10:44;;;;;;;0.10;0.10;;;;;;;;;;1754097;28;20229;-71
2022/12/12 05:11:36;;;;;;;0.20;0.20;;;;;;;;;;1754157;28;20194;-71
2022/12/12 05:12:27;;;;;;;0.10;0.10;;;;;;;;;;1753451;28;20237;-71
2022/12/12 05:13:20;;;;;;;0.10;0.10;;;;;;;;;;1756394;28;20628;-71
2022/12/12 05:14:14;;;;;;;0.10;0.10;;;;;;;;;;1760005;28;20375;-71
2022/12/12 05:15:07;;;;;;;0.17;0.17;;;;;;;;;;1761223;28;20583;-71
2022/12/12 05:15:59;;;;;;;0.10;0.10;;;;;;;;;;1760366;28;20549;-71
2022/12/12 05:16:53;;;;;;;0.43;0.43;;;;;;;;;;1760215;28;20213;-71
2022/12/12 05:17:46;;;;;;;0.13;0.13;;;;;;;;;;1760401;28;20550;-71
2022/12/12 05:18:38;;;;;;;0.10;0.10;;;;;;;;;;1760187;28;20233;-71
2022/12/12 05:19:29;;;;;;;0.20;0.20;;;;;;;;;;1760416;28;20219;-71
2022/12/12 05:20:22;;;;;;;0.20;0.20;;;;;;;;;;1760700;28;20559;-71
2022/12/12 05:21:14;;;;;;;0.20;0.20;;;;;;;;;;1760610;28;20220;-71
2022/12/12 05:22:06;;;;;;;0.10;0.10;;;;;;;;;;1760414;28;20212;-71
2022/12/12 05:22:57;;;;;;;0.10;0.10;;;;;;;;;;1760649;28;20216;-71
2022/12/12 05:23:49;;;;;;;0.20;0.20;;;;;;;;;;1760048;28;20555;-70
2022/12/12 05:24:40;;;;;;;0.10;0.10;;;;;;;;;;1760612;28;20253;-71
2022/12/12 05:25:32;;;;;;;0.13;0.13;;;;;;;;;;1760020;28;20251;-71
2022/12/12 05:26:26;;;;;;;0.15;0.15;;;;;;;;;;1760482;28;20205;-72
2022/12/12 05:27:18;;;;;;;0.30;0.30;;;;;;;;;;1760104;28;20523;-72
2022/12/12 05:28:09;;;;;;;0.20;0.20;;;;;;;;;;1760849;28;20216;-72
2022/12/12 05:29:02;;;;;;;0.10;0.10;;;;;;;;;;1758602;28;20205;-72
2022/12/12 05:29:53;;;;;;;0.10;0.10;;;;;;;;;;1756958;28;20217;-72
2022/12/12 05:30:45;;;;;;;0.10;0.10;;;;;;;;;;1760398;28;20205;-72
2022/12/12 05:31:36;;;;;;;0.22;0.22;;;;;;;;;;1760511;28;20205;-71
2022/12/12 05:32:28;;;;;;;0.10;0.10;;;;;;;;;;1759942;28;20200;-70
2022/12/12 05:33:19;;;;;;;0.20;0.20;;;;;;;;;;1760461;28;20226;-70
2022/12/12 05:34:11;;;;;;;0.25;0.25;;;;;;;;;;1760194;28;20584;-71
2022/12/12 05:35:06;;;;;;;0.20;0.20;;;;;;;;;;1755110;28;20199;-71
2022/12/12 05:36:00;;;;;;;0.05;0.05;;;;;;;;;;1760306;28;20296;-71